Terminal Aerodrome Forecast
Issued by NWS Huntsville, AL

Home | Current Version | Previous Version | Text Only | Print | Product List | Glossary On
Versions: 1 2 3 4 5 6 7 8 9 10 11 12 13 14 15 16 17 18 19 20 21
000
FTUS44 KHUN 240827 AAA
TAFHSV
TAF AMD
KHSV 240827Z 2408/2506 33004KT P6SM OVC020
     FM241100 35003KT P6SM SCT025
      TEMPO 2411/2414 5SM BR
     FM241400 VRB02KT P6SM SKC
     FM242300 17006KT P6SM SCT250=

USA.gov is the U.S. government's official web portal to all federal, state and local government web resources and services.